WetterOnline ( https://www.wetteronline.de )

Wetter aktuell Potsdam

Aktuelles Wetter: Potsdam (100m)

6-stündlich | Neueste Meldungen
Ortszeit Temperatur Wetter
Mo, 05.12. 7:00 2.6° C leichter Regen
Mo, 05.12. 1:00 2.3° C Nebel
So, 04.12. 19:00 1.6° C bedeckt
So, 04.12. 13:00 0.9° C bedeckt
So, 04.12. 7:00 -0.2° C bedeckt
So, 04.12. 1:00 -0.6° C bedeckt
Sa, 03.12. 19:00 -1.1° C bedeckt
Sa, 03.12. 13:00 -1.3° C bedeckt
Ortszeit Temperatur Wetter
Mo, 05.12. 9:30 2.8° C bedeckt
Mo, 05.12. 9:20 2.8° C Sprühregen
Mo, 05.12. 9:10 2.8° C Dunst
Mo, 05.12. 9:00 2.8° C Sprühregen
Mo, 05.12. 8:50 2.8° C Sprühregen
Mo, 05.12. 8:40 2.8° C Dunst
Mo, 05.12. 8:30 2.7° C bedeckt
Mo, 05.12. 8:00 2.7° C bedeckt
Mo, 05.12. 7:30 2.7° C bedeckt
Mo, 05.12. 7:00 2.6° C leichter Regen
Mo, 05.12. 6:30 2.7° C leichter Regen
Ortszeit Relative Feuchte Sichtweite
Mo, 05.12. 7:00 99% 1.8 km
Mo, 05.12. 1:00 99% 0.5 km
So, 04.12. 19:00 99% 1.3 km
So, 04.12. 13:00 95% 3.9 km
So, 04.12. 7:00 96% 2.8 km
So, 04.12. 1:00 92% 4.2 km
Sa, 03.12. 19:00 92% 5.0 km
Sa, 03.12. 13:00 89% 6 km
Ortszeit Relative Feuchte Sichtweite
Mo, 05.12. 9:30 99% 2.8 km
Mo, 05.12. 9:20 99% -
Mo, 05.12. 9:10 99% -
Mo, 05.12. 9:00 99% 2.4 km
Mo, 05.12. 8:50 99% -
Mo, 05.12. 8:40 99% -
Mo, 05.12. 8:30 99% 3.1 km
Mo, 05.12. 8:00 99% 2.1 km
Mo, 05.12. 7:30 99% 2.4 km
Mo, 05.12. 7:00 99% 1.8 km
Mo, 05.12. 6:30 98% 2.7 km
Ortszeit Niederschlagsmenge Niederschlagsart
Mo, 05.12. 7:00 1 l/m2 in 12 Std. Regen
Mo, 05.12. 1:00 0.0 l/m2 in 6 Std. -
So, 04.12. 19:00 0.1 l/m2 in 12 Std. Sprühregen
So, 04.12. 13:00 0.0 l/m2 in 6 Std. -
So, 04.12. 7:00 0.1 l/m2 in 12 Std. -
So, 04.12. 1:00 0.1 l/m2 in 6 Std. Schnee, Sprühregen
Sa, 03.12. 19:00 0.4 l/m2 in 12 Std. Schnee, Regen
Sa, 03.12. 13:00 0.4 l/m2 in 6 Std. Schnee, Sprühregen
Ortszeit Niederschlagsmenge Niederschlagsart
Mo, 05.12. 9:30 0.1 l/m2 in 30 Min Schneeregen
Mo, 05.12. 9:20 keine Meldung -
Mo, 05.12. 9:10 keine Meldung -
Mo, 05.12. 9:00 <0.05 l/m2 in 1 Std. Regen
Mo, 05.12. 8:50 keine Meldung -
Mo, 05.12. 8:40 keine Meldung -
Mo, 05.12. 8:30 <0.05 l/m2 in 30 Min Schneeregen
Mo, 05.12. 8:00 0.1 l/m2 in 1 Std. Regen
Mo, 05.12. 7:30 <0.05 l/m2 in 30 Min Schneeregen
Mo, 05.12. 7:00 0.1 l/m2 in 1 Std. Regen
Mo, 05.12. 6:30 <0.05 l/m2 in 30 Min -
Ortszeit Stärke Spitze Richtung
km/h Bft. km/h Grad Sektor
Mo, 05.12. 7:00 18 3 32 90° O
Mo, 05.12. 1:00 20 4 31 80° O
So, 04.12. 19:00 17 3 30 70° O
So, 04.12. 13:00 19 3 28 70° O
So, 04.12. 7:00 14 3 25 70° O
So, 04.12. 1:00 15 3 31 80° O
Sa, 03.12. 19:00 18 3 32 90° O
Sa, 03.12. 13:00 13 3 26 80° O
Ortszeit Stärke Spitze Richtung
km/h Bft. km/h Grad Sektor
Mo, 05.12. 9:30 18 3 32 90° O
Mo, 05.12. 9:20 18 3 - 90° O
Mo, 05.12. 9:10 19 3 - 90° O
Mo, 05.12. 9:00 19 3 30 90° O
Mo, 05.12. 8:50 19 3 - 90° O
Mo, 05.12. 8:40 18 3 - 90° O
Mo, 05.12. 8:30 18 3 29 90° O
Mo, 05.12. 8:00 14 3 32 90° O
Mo, 05.12. 7:30 18 3 32 90° O
Mo, 05.12. 7:00 18 3 29 90° O
Mo, 05.12. 6:30 18 3 29 90° O
Ortszeit Untergrenze Bedeckung Gattung
total tief tief mittel hoch
Mo, 05.12. 7:00 90 m 8/8 8/8 - - -
Mo, 05.12. 1:00 30 m 8/8 8/8 - - -
So, 04.12. 19:00 60 m 8/8 8/8 - - -
So, 04.12. 13:00 150 m 8/8 8/8 - - -
So, 04.12. 7:00 120 m 8/8 8/8 - - -
So, 04.12. 1:00 150 m 8/8 8/8 - - -
Sa, 03.12. 19:00 180 m 8/8 8/8 - - -
Sa, 03.12. 13:00 240 m 8/8 8/8 - - -
Ortszeit Bedeckungsgrad in Achtel und Wolkenuntergrenze
Mo, 05.12. 9:30 8(60m)
Mo, 05.12. 9:20 8(60m)
Mo, 05.12. 9:10 8
Mo, 05.12. 9:00 8(90m)
Mo, 05.12. 8:50 8(90m)
Mo, 05.12. 8:40 8
Mo, 05.12. 8:30 8(90m)
Mo, 05.12. 8:00 8(90m)
Mo, 05.12. 7:30 8(90m)
Mo, 05.12. 7:00 8(90m)
Mo, 05.12. 6:30 8(90m)
Ortszeit Luftdruck NN (hPa) Tendenz (hPa in 3 Std.)
Mo, 05.12. 7:00 1018 - 0,1
Mo, 05.12. 1:00 1019 - 0,7
So, 04.12. 19:00 1020 - 0,1
So, 04.12. 13:00 1020 - 1,1
So, 04.12. 7:00 1021 - 0,1
So, 04.12. 1:00 1022 - 0,6
Sa, 03.12. 19:00 1023 - 0,3
Sa, 03.12. 13:00 1024 - 1,1
Ortszeit Luftdruck NN (hPa) Tendenz (hPa in 3 Std.)
Mo, 05.12. 9:30 1019 + 0,6
Mo, 05.12. 9:20 1019 keine Meldung
Mo, 05.12. 9:10 1018 keine Meldung
Mo, 05.12. 9:00 1018 + 0,5
Mo, 05.12. 8:50 1018 keine Meldung
Mo, 05.12. 8:40 1018 keine Meldung
Mo, 05.12. 8:30 1018 + 0,5
Mo, 05.12. 8:00 1018 + 0,4
Mo, 05.12. 7:30 1018 + 0,2
Mo, 05.12. 7:00 1018 - 0,1
Mo, 05.12. 6:30 1018 - 0,2
Ortszeit Schneehöhe (cm)
Mo, 05.12. 7:00 0
Mo, 05.12. 1:00 0
So, 04.12. 19:00 0
So, 04.12. 13:00 0
So, 04.12. 7:00 3
So, 04.12. 1:00 3
Sa, 03.12. 19:00 3
Sa, 03.12. 13:00 3
Ortszeit Schneehöhe (cm)
Mo, 05.12. 9:30 0
Mo, 05.12. 9:20 0
Mo, 05.12. 9:10 0
Mo, 05.12. 9:00 0
Mo, 05.12. 8:50 0
Mo, 05.12. 8:40 0
Mo, 05.12. 8:30 0
Mo, 05.12. 8:00 0
Mo, 05.12. 7:30 0
Mo, 05.12. 7:00 0
Mo, 05.12. 6:30 0
Link zu dieser Seite / Seite empfehlen

Das Wetter in ...